Time;durP1;ratioP1;P1;durP2;ratioP2;P2;SDS_P1;SDS_P2;PMS_P1;PMS_P2;Temp;Humidity;BMP_temperature;BMP_pressure;BME280_temperature;BME280_humidity;BME280_pressure;Samples;Min_cycle;Max_cycle;Signal;HPM_P1;HPM_P2
2022/06/18 00:01:37;;;;;;;3.43;2.50;;;16.60;99.90;;;;;;5069643;28;20381;-84
2022/06/18 00:04:12;;;;;;;3.30;2.72;;;16.60;99.90;;;;;;5063798;28;20402;-84
2022/06/18 00:07:00;;;;;;;2.72;2.53;;;16.50;99.90;;;;;;5069583;28;20414;-83
2022/06/18 00:09:35;;;;;;;2.78;2.58;;;16.50;99.90;;;;;;5068541;28;20400;-85
2022/06/18 00:14:55;;;;;;;4.20;2.70;;;16.40;99.90;;;;;;5057931;28;20443;-83
2022/06/18 00:17:22;;;;;;;3.47;2.70;;;16.30;99.90;;;;;;5071456;28;20376;-84
2022/06/18 00:19:49;;;;;;;3.70;2.67;;;16.30;99.90;;;;;;5087262;28;20420;-84
2022/06/18 00:22:18;;;;;;;2.80;2.60;;;16.30;99.90;;;;;;5085597;28;20408;-84
2022/06/18 00:24:44;;;;;;;3.30;2.80;;;16.30;99.90;;;;;;5077126;28;20442;-84
2022/06/18 00:27:16;;;;;;;3.38;2.80;;;16.20;99.90;;;;;;5085109;28;20386;-84
2022/06/18 00:29:42;;;;;;;3.58;3.20;;;16.20;99.90;;;;;;5072272;28;20386;-84
2022/06/18 00:32:09;;;;;;;3.45;2.88;;;16.10;99.90;;;;;;5069531;28;20481;-84
2022/06/18 00:34:35;;;;;;;3.10;2.70;;;16.10;99.90;;;;;;5069498;28;20394;-84
2022/06/18 00:37:02;;;;;;;3.55;2.80;;;16.00;99.90;;;;;;5070827;28;20854;-84
2022/06/18 00:39:29;;;;;;;4.40;3.10;;;16.00;99.90;;;;;;5069372;28;20397;-83
2022/06/18 00:41:58;;;;;;;2.95;2.60;;;15.90;99.90;;;;;;5069282;28;20393;-83
2022/06/18 00:44:38;;;;;;;4.03;3.00;;;15.90;99.90;;;;;;5068725;28;20397;-84
2022/06/18 00:47:37;;;;;;;3.50;2.92;;;15.80;99.90;;;;;;5070788;28;20476;-83
2022/06/18 00:50:02;;;;;;;4.18;2.90;;;15.80;99.90;;;;;;5070493;28;20370;-84
2022/06/18 00:52:40;;;;;;;3.42;3.00;;;15.70;99.90;;;;;;5070285;28;20381;-83
2022/06/18 00:55:31;;;;;;;3.10;2.80;;;15.70;99.90;;;;;;5070668;28;20378;-84
2022/06/18 00:58:14;;;;;;;3.67;2.80;;;15.70;99.90;;;;;;5022699;28;20397;-84
2022/06/18 01:00:45;;;;;;;3.55;2.88;;;15.60;99.90;;;;;;5069938;28;20398;-84
2022/06/18 01:03:43;;;;;;;4.80;3.60;;;15.60;99.90;;;;;;5068920;28;20414;-84
2022/06/18 01:06:28;;;;;;;3.90;2.97;;;15.50;99.90;;;;;;5049449;28;20922;-83
2022/06/18 01:09:03;;;;;;;4.25;3.22;;;15.50;99.90;;;;;;5068631;28;20816;-84
2022/06/18 01:11:33;;;;;;;4.15;3.25;;;15.40;99.90;;;;;;5069449;28;20478;-84
2022/06/18 01:14:04;;;;;;;3.30;3.00;;;15.30;99.90;;;;;;5069874;28;20420;-83
2022/06/18 01:16:31;;;;;;;3.97;3.25;;;15.30;99.90;;;;;;5068686;28;20478;-84
2022/06/18 01:18:57;;;;;;;3.60;3.17;;;15.20;99.90;;;;;;5068738;28;20382;-84
2022/06/18 01:21:38;;;;;;;3.33;3.03;;;15.20;99.90;;;;;;5070110;28;20377;-84
2022/06/18 01:24:17;;;;;;;3.17;2.88;;;15.20;99.90;;;;;;5069911;28;20417;-83
2022/06/18 01:26:48;;;;;;;3.85;3.20;;;15.20;99.90;;;;;;5069830;28;20457;-83
2022/06/18 01:29:14;;;;;;;3.38;3.00;;;15.10;99.90;;;;;;5068479;28;20386;-84
2022/06/18 01:31:40;;;;;;;3.30;3.00;;;15.10;99.90;;;;;;5068361;28;20390;-84
2022/06/18 01:34:08;;;;;;;4.00;3.03;;;15.10;99.90;;;;;;5068320;28;20794;-84
2022/06/18 01:36:36;;;;;;;3.47;3.13;;;15.00;99.90;;;;;;5069063;28;20406;-83
2022/06/18 01:39:04;;;;;;;3.67;3.13;;;15.00;99.90;;;;;;5069090;28;20366;-84
2022/06/18 01:41:52;;;;;;;3.67;3.05;;;14.90;99.90;;;;;;5069641;28;20374;-83
2022/06/18 01:44:30;;;;;;;4.18;3.42;;;14.90;99.90;;;;;;5069148;28;20410;-83
2022/06/18 01:47:01;;;;;;;4.13;3.27;;;14.80;99.90;;;;;;5068001;28;20397;-83
2022/06/18 01:49:33;;;;;;;3.63;3.30;;;14.80;99.90;;;;;;5070094;28;20453;-83
2022/06/18 01:52:03;;;;;;;4.05;3.10;;;14.80;99.90;;;;;;5067721;28;20382;-84
2022/06/18 01:54:35;;;;;;;3.50;3.20;;;14.70;99.90;;;;;;5068122;28;20512;-83
2022/06/18 01:57:05;;;;;;;3.58;2.90;;;14.70;99.90;;;;;;5067855;28;20451;-83
2022/06/18 01:59:40;;;;;;;3.40;3.10;;;14.70;99.90;;;;;;5067690;28;20385;-83
2022/06/18 02:02:06;;;;;;;5.10;3.50;;;14.60;99.90;;;;;;5069072;28;20378;-83
2022/06/18 02:04:33;;;;;;;4.07;3.40;;;14.50;99.90;;;;;;5067859;28;20374;-84
2022/06/18 02:06:59;;;;;;;3.88;3.47;;;14.50;99.90;;;;;;5069020;28;20755;-83
2022/06/18 02:09:32;;;;;;;3.77;3.47;;;14.50;99.90;;;;;;5069006;28;20397;-83
2022/06/18 02:12:00;;;;;;;4.28;3.33;;;14.50;99.90;;;;;;5069024;28;20625;-83
2022/06/18 02:14:27;;;;;;;5.97;3.45;;;14.50;99.90;;;;;;5051039;28;20382;-83
2022/06/18 02:16:56;;;;;;;3.55;3.25;;;14.40;99.90;;;;;;5068733;28;20533;-84
2022/06/18 02:19:21;;;;;;;4.18;3.78;;;14.40;99.90;;;;;;5067656;28;20362;-84
2022/06/18 02:21:51;;;;;;;4.07;3.60;;;14.40;99.90;;;;;;5068661;28;20378;-83
2022/06/18 02:24:17;;;;;;;4.00;3.35;;;14.40;99.90;;;;;;5067753;28;20404;-83
2022/06/18 02:26:45;;;;;;;3.83;3.42;;;14.30;99.90;;;;;;5068548;28;20382;-84
2022/06/18 02:29:31;;;;;;;4.53;3.47;;;14.30;99.90;;;;;;5068925;28;20830;-83
2022/06/18 02:31:59;;;;;;;3.60;3.30;;;14.30;99.90;;;;;;5068400;28;20406;-83
2022/06/18 02:34:28;;;;;;;3.80;3.40;;;14.30;99.90;;;;;;5068755;28;20451;-82
2022/06/18 02:36:55;;;;;;;4.30;3.90;;;14.20;99.90;;;;;;5068480;28;20377;-83
2022/06/18 02:39:23;;;;;;;5.45;4.07;;;14.20;99.90;;;;;;5068855;28;20374;-83
2022/06/18 02:41:52;;;;;;;5.20;4.07;;;14.20;99.90;;;;;;5067300;28;20378;-83
2022/06/18 02:44:17;;;;;;;4.50;3.95;;;14.10;99.90;;;;;;5068585;28;20503;-83
2022/06/18 02:46:43;;;;;;;5.18;4.03;;;14.10;99.90;;;;;;5068524;28;20465;-83
2022/06/18 02:49:11;;;;;;;4.80;4.25;;;14.00;99.90;;;;;;5069394;28;20385;-83
2022/06/18 02:51:38;;;;;;;4.72;4.32;;;14.00;99.90;;;;;;5071238;28;20864;-83
2022/06/18 02:54:03;;;;;;;5.90;4.78;;;14.00;99.90;;;;;;5072440;28;20385;-83
2022/06/18 02:56:29;;;;;;;5.05;4.50;;;14.00;99.90;;;;;;5072792;28;20366;-82
2022/06/18 02:58:55;;;;;;;5.20;4.30;;;14.00;99.90;;;;;;5071222;28;20370;-83
2022/06/18 03:01:25;;;;;;;6.77;4.73;;;14.00;99.90;;;;;;5072278;28;20898;-82
2022/06/18 03:03:55;;;;;;;6.90;4.65;;;14.00;99.90;;;;;;5071243;28;20883;-81
2022/06/18 03:06:25;;;;;;;7.20;4.97;;;14.00;99.90;;;;;;5054764;28;20756;-82
2022/06/18 03:08:51;;;;;;;5.30;4.80;;;14.00;99.90;;;;;;5071626;28;20409;-82
2022/06/18 03:14:04;;;;;;;424.70;59.37;;;14.10;99.90;;;;;;5072682;28;20385;-84
2022/06/18 03:16:31;;;;;;;415.48;55.63;;;14.00;99.90;;;;;;5072081;28;20862;-82
2022/06/18 03:18:58;;;;;;;196.25;31.65;;;14.10;99.90;;;;;;5070688;28;20366;-83
2022/06/18 03:21:38;;;;;;;79.00;15.00;;;14.20;99.90;;;;;;5070443;28;20724;-83
2022/06/18 03:24:05;;;;;;;21.50;7.97;;;14.10;99.90;;;;;;5070661;28;20490;-82
2022/06/18 03:26:31;;;;;;;8.70;5.40;;;14.20;99.90;;;;;;5072377;28;20374;-83
2022/06/18 03:28:57;;;;;;;5.82;5.22;;;14.30;99.90;;;;;;5071787;28;20384;-83
2022/06/18 03:31:22;;;;;;;5.85;5.32;;;14.40;99.90;;;;;;5071648;28;20386;-82
2022/06/18 03:33:49;;;;;;;6.17;5.50;;;14.40;99.90;;;;;;5071902;28;20397;-83
2022/06/18 03:36:17;;;;;;;5.85;5.35;;;14.40;99.90;;;;;;5072090;28;20436;-83
2022/06/18 03:38:43;;;;;;;7.90;5.78;;;14.50;99.90;;;;;;5070435;28;20386;-83
2022/06/18 03:41:10;;;;;;;6.30;5.70;;;14.60;99.90;;;;;;5070470;28;20435;-83
2022/06/18 03:43:36;;;;;;;6.75;5.65;;;14.60;99.90;;;;;;5070290;28;20854;-83
2022/06/18 03:46:08;;;;;;;10.00;5.50;;;14.70;99.90;;;;;;5071225;28;20366;-83
2022/06/18 03:48:50;;;;;;;6.68;5.75;;;14.80;99.90;;;;;;5071790;28;20367;-83
2022/06/18 03:51:18;;;;;;;6.72;6.07;;;14.90;99.90;;;;;;5070478;28;20398;-83
2022/06/18 03:53:44;;;;;;;7.32;6.63;;;15.00;99.90;;;;;;5070372;28;20393;-83
2022/06/18 03:56:16;;;;;;;6.80;6.10;;;15.10;99.90;;;;;;5072428;28;20397;-83
2022/06/18 03:58:43;;;;;;;7.55;6.85;;;15.10;99.90;;;;;;5070320;28;20375;-84
2022/06/18 04:01:10;;;;;;;6.72;6.03;;;15.20;99.90;;;;;;5070170;28;20386;-83
2022/06/18 04:03:36;;;;;;;7.07;6.37;;;15.20;99.90;;;;;;5069918;28;20432;-83
2022/06/18 04:06:03;;;;;;;7.38;6.68;;;15.30;99.90;;;;;;5071345;28;20381;-84
2022/06/18 04:08:29;;;;;;;7.38;6.68;;;15.40;99.90;;;;;;5069866;28;20887;-85
2022/06/18 04:10:55;;;;;;;7.45;6.75;;;15.60;99.90;;;;;;5069714;28;20389;-84
2022/06/18 04:13:20;;;;;;;7.50;6.60;;;15.50;99.90;;;;;;5069700;28;20374;-84
2022/06/18 04:15:47;;;;;;;7.05;6.38;;;15.60;99.90;;;;;;5069753;28;20398;-84
2022/06/18 04:18:16;;;;;;;6.80;6.10;;;15.70;99.90;;;;;;5070813;28;20455;-84
2022/06/18 04:20:44;;;;;;;31.55;9.25;;;15.90;99.90;;;;;;5071116;28;20852;-85
2022/06/18 04:23:11;;;;;;;18.45;7.50;;;16.00;99.90;;;;;;5069402;28;21620;-84
2022/06/18 04:25:38;;;;;;;15.73;6.70;;;16.10;99.90;;;;;;5069663;28;20386;-85
2022/06/18 04:28:04;;;;;;;28.83;8.60;;;16.20;99.90;;;;;;5069508;28;20382;-84
2022/06/18 04:30:32;;;;;;;71.13;12.93;;;16.40;99.90;;;;;;5070651;28;20794;-85
2022/06/18 04:32:58;;;;;;;11.23;7.00;;;16.60;99.90;;;;;;5070413;28;20755;-85
2022/06/18 04:35:24;;;;;;;10.70;7.85;;;16.90;99.90;;;;;;5070907;28;20369;-85
2022/06/18 04:37:50;;;;;;;8.70;6.65;;;17.10;99.90;;;;;;5070694;28;20401;-84
2022/06/18 04:40:19;;;;;;;6.33;5.70;;;17.20;99.90;;;;;;5069188;28;20475;-85
2022/06/18 04:42:45;;;;;;;7.18;5.95;;;17.50;99.90;;;;;;5070529;28;20433;-86
2022/06/18 04:45:11;;;;;;;7.55;5.90;;;17.80;99.90;;;;;;5070938;28;20456;-85
2022/06/18 04:47:40;;;;;;;8.10;5.70;;;18.20;99.90;;;;;;5070557;28;20390;-85
2022/06/18 04:50:08;;;;;;;6.18;5.57;;;18.60;99.90;;;;;;5070605;28;20374;-85
2022/06/18 04:52:34;;;;;;;7.90;6.10;;;19.00;99.90;;;;;;5069546;28;20472;-83
2022/06/18 04:54:59;;;;;;;12.13;6.03;;;19.30;99.90;;;;;;5070672;28;20433;-84
2022/06/18 04:57:25;;;;;;;6.43;5.53;;;19.60;99.90;;;;;;5069058;28;20374;-83
2022/06/18 04:59:51;;;;;;;6.65;5.43;;;19.90;99.90;;;;;;5070760;28;20994;-84
2022/06/18 05:02:23;;;;;;;7.05;4.88;;;20.50;99.90;;;;;;5069648;28;20810;-85
2022/06/18 05:04:49;;;;;;;7.70;5.10;;;21.00;99.90;;;;;;5068719;28;20775;-84
2022/06/18 05:07:14;;;;;;;5.15;4.60;;;21.80;99.90;;;;;;5068740;28;20812;-85
2022/06/18 05:09:41;;;;;;;7.20;4.55;;;21.90;99.90;;;;;;5068943;28;20468;-85
2022/06/18 05:12:07;;;;;;;5.72;4.43;;;22.20;99.90;;;;;;5069224;28;20381;-85
2022/06/18 05:14:33;;;;;;;7.68;4.00;;;22.40;99.90;;;;;;5070297;28;20456;-85
2022/06/18 05:17:01;;;;;;;7.83;4.53;;;22.80;99.90;;;;;;5069142;28;21022;-84
2022/06/18 05:19:29;;;;;;;6.82;4.13;;;23.30;99.90;;;;;;5068549;28;20378;-84
2022/06/18 05:21:55;;;;;;;4.55;3.85;;;23.80;97.80;;;;;;5068127;28;20960;-85
2022/06/18 05:24:21;;;;;;;5.53;3.40;;;23.80;97.90;;;;;;5069978;28;20401;-85
2022/06/18 05:26:51;;;;;;;5.78;3.88;;;23.80;98.00;;;;;;5070240;28;20370;-84
2022/06/18 05:29:17;;;;;;;5.80;3.83;;;23.70;97.40;;;;;;5068925;28;20386;-84
2022/06/18 05:31:43;;;;;;;4.85;3.55;;;23.60;97.30;;;;;;5069811;28;20469;-84
2022/06/18 05:34:11;;;;;;;4.90;3.75;;;23.40;97.10;;;;;;5069535;28;20398;-85
2022/06/18 05:36:37;;;;;;;5.95;3.60;;;23.50;97.50;;;;;;5069770;28;20369;-83
2022/06/18 05:39:04;;;;;;;3.38;2.95;;;23.50;97.60;;;;;;5068939;28;20381;-84
2022/06/18 05:41:30;;;;;;;3.93;2.70;;;23.40;97.40;;;;;;5068922;28;20902;-83
2022/06/18 05:43:56;;;;;;;7.93;3.10;;;23.50;97.00;;;;;;5069513;28;20390;-86
2022/06/18 05:46:23;;;;;;;3.75;3.00;;;23.40;97.20;;;;;;5069924;28;20933;-85
2022/06/18 05:48:52;;;;;;;4.50;2.80;;;23.50;97.40;;;;;;5069565;28;20455;-85
2022/06/18 05:51:18;;;;;;;4.30;2.38;;;23.60;96.90;;;;;;5069811;28;20385;-85
2022/06/18 05:53:44;;;;;;;3.35;2.30;;;23.50;96.50;;;;;;5068797;28;20459;-84
2022/06/18 05:56:10;;;;;;;5.13;2.33;;;23.50;97.00;;;;;;5069607;28;20414;-86
2022/06/18 05:58:36;;;;;;;3.83;2.13;;;23.50;97.40;;;;;;5069983;28;21572;-85
2022/06/18 06:01:02;;;;;;;4.03;1.88;;;23.40;97.30;;;;;;5068207;28;20397;-86
2022/06/18 06:03:27;;;;;;;4.88;1.92;;;23.60;97.20;;;;;;5069356;28;20821;-85
2022/06/18 06:05:53;;;;;;;5.47;2.00;;;23.70;96.90;;;;;;5069036;28;20410;-84
2022/06/18 06:08:19;;;;;;;3.50;1.83;;;24.00;96.10;;;;;;5068810;28;20374;-85
2022/06/18 06:13:29;;;;;;;5.63;1.77;;;24.60;95.50;;;;;;5069569;28;20421;-85
2022/06/18 06:15:55;;;;;;;3.58;2.10;;;25.00;95.80;;;;;;5069463;28;20398;-86
2022/06/18 06:18:23;;;;;;;4.57;1.83;;;25.40;94.40;;;;;;5068189;28;20386;-85
2022/06/18 06:20:52;;;;;;;4.55;1.73;;;26.00;93.50;;;;;;5068657;28;20422;-85
2022/06/18 06:23:18;;;;;;;3.83;1.73;;;26.00;93.30;;;;;;5069425;28;20398;-85
2022/06/18 06:25:45;;;;;;;5.88;1.60;;;26.40;92.80;;;;;;5068652;28;21006;-85
2022/06/18 06:28:16;;;;;;;3.10;1.50;;;;;;;;;;5068092;28;20378;-85
2022/06/18 06:30:42;;;;;;;4.97;1.73;;;26.90;90.80;;;;;;5069084;28;20363;-85
2022/06/18 06:33:07;;;;;;;1.85;1.50;;;27.10;91.30;;;;;;5067386;28;20397;-86
2022/06/18 06:35:36;;;;;;;2.95;1.50;;;27.40;90.30;;;;;;5066867;28;21264;-85
2022/06/18 06:38:02;;;;;;;4.90;1.50;;;27.60;90.20;;;;;;5067737;28;20902;-86
2022/06/18 06:40:30;;;;;;;2.83;1.40;;;27.80;89.40;;;;;;5067880;28;20382;-85
2022/06/18 06:42:56;;;;;;;2.83;1.48;;;28.10;89.60;;;;;;5066239;28;20884;-86
2022/06/18 06:45:25;;;;;;;4.82;1.75;;;28.40;89.10;;;;;;5067390;28;20386;-85
2022/06/18 06:47:52;;;;;;;1.63;1.30;;;28.60;87.40;;;;;;5066947;28;20402;-85
2022/06/18 06:50:19;;;;;;;4.93;1.90;;;28.70;85.10;;;;;;5067281;28;20408;-86
2022/06/18 06:52:45;;;;;;;3.13;1.50;;;28.90;84.20;;;;;;5065924;28;20398;-86
2022/06/18 06:58:04;;;;;;;3.40;1.52;;;29.40;84.60;;;;;;5068385;28;20485;-86
2022/06/18 07:00:32;;;;;;;2.72;1.50;;;;;;;;;;5066845;28;20426;-84
2022/06/18 07:02:58;;;;;;;2.00;1.20;;;;;;;;;;5066704;28;20520;-85
2022/06/18 07:05:24;;;;;;;3.63;1.30;;;30.40;80.10;;;;;;5067690;28;20382;-86
2022/06/18 07:07:50;;;;;;;2.40;1.50;;;30.40;80.70;;;;;;5067618;28;21120;-85
2022/06/18 07:10:16;;;;;;;7.57;1.87;;;30.60;76.60;;;;;;5068348;28;20382;-86
2022/06/18 07:12:43;;;;;;;2.65;1.55;;;30.80;75.40;;;;;;5067692;28;20382;-85
2022/06/18 07:15:09;;;;;;;4.47;1.70;;;30.80;77.60;;;;;;5068779;28;20382;-87
2022/06/18 07:17:34;;;;;;;3.40;1.70;;;31.10;77.20;;;;;;5068694;28;20394;-86
2022/06/18 07:20:01;;;;;;;3.27;1.57;;;31.20;77.40;;;;;;5067523;28;20902;-86
2022/06/18 07:22:27;;;;;;;4.38;1.48;;;31.30;75.00;;;;;;5067517;28;20386;-86
2022/06/18 07:24:52;;;;;;;4.03;1.70;;;31.10;75.00;;;;;;5068569;28;20378;-86
2022/06/18 07:27:18;;;;;;;4.85;1.90;;;31.10;75.00;;;;;;5067224;28;20378;-87
2022/06/18 07:29:44;;;;;;;4.57;1.80;;;31.10;77.00;;;;;;5067166;28;20867;-86
2022/06/18 07:32:19;;;;;;;6.17;1.80;;;31.10;75.50;;;;;;5067338;28;20370;-86
2022/06/18 07:34:45;;;;;;;3.70;1.70;;;31.00;76.30;;;;;;5066987;28;20410;-87
2022/06/18 07:37:11;;;;;;;2.70;1.55;;;30.90;74.10;;;;;;5070659;28;20382;-86
2022/06/18 07:39:37;;;;;;;5.75;1.95;;;30.80;74.50;;;;;;5071000;28;20886;-84
2022/06/18 07:42:04;;;;;;;9.63;2.22;;;30.70;79.20;;;;;;5072061;28;20382;-87
2022/06/18 07:44:30;;;;;;;5.45;1.70;;;30.60;74.60;;;;;;5070240;28;20437;-87
2022/06/18 07:47:01;;;;;;;3.92;2.00;;;30.50;77.70;;;;;;5070469;28;20377;-86
2022/06/18 07:49:27;;;;;;;2.85;1.60;;;30.50;77.50;;;;;;5069325;28;20405;-87
2022/06/18 07:51:53;;;;;;;2.90;1.60;;;30.60;77.40;;;;;;5078645;28;20420;-87
2022/06/18 07:54:20;;;;;;;3.33;1.80;;;30.70;75.30;;;;;;5072573;28;20432;-86
2022/06/18 07:56:46;;;;;;;3.97;1.95;;;30.80;79.10;;;;;;5090884;28;20369;-87
2022/06/18 07:59:12;;;;;;;2.92;1.67;;;30.60;78.10;;;;;;5091024;28;20904;-89
2022/06/18 08:01:38;;;;;;;4.82;1.70;;;30.70;77.70;;;;;;5090868;28;20919;-87
2022/06/18 08:04:05;;;;;;;4.53;1.80;;;30.70;78.90;;;;;;5086913;28;21209;-87
2022/06/18 08:06:34;;;;;;;3.80;1.70;;;30.90;77.90;;;;;;5072073;28;20405;-88
2022/06/18 08:08:59;;;;;;;2.73;1.53;;;30.90;78.10;;;;;;5072856;28;20466;-86
2022/06/18 08:11:28;;;;;;;7.80;1.95;;;30.90;75.80;;;;;;5071695;28;20807;-87
2022/06/18 08:13:55;;;;;;;4.05;1.60;;;30.90;77.00;;;;;;5092367;28;20380;-87
2022/06/18 08:16:21;;;;;;;3.23;1.80;;;31.00;78.50;;;;;;5088080;28;20364;-86
2022/06/18 08:18:47;;;;;;;4.82;1.60;;;31.10;78.80;;;;;;5072024;28;20378;-87
2022/06/18 08:21:26;;;;;;;4.20;1.67;;;31.30;77.00;;;;;;5074083;28;20366;-86
2022/06/18 08:23:55;;;;;;;2.92;1.52;;;31.40;76.70;;;;;;5071961;28;20406;-86
2022/06/18 08:26:25;;;;;;;2.38;1.50;;;31.50;75.30;;;;;;5072126;28;20481;-86
2022/06/18 08:28:51;;;;;;;3.97;1.67;;;31.50;76.60;;;;;;5069484;28;20382;-87
2022/06/18 08:31:20;;;;;;;3.00;1.70;;;31.40;76.40;;;;;;5071171;28;20382;-86
2022/06/18 08:33:47;;;;;;;4.72;1.73;;;31.50;76.30;;;;;;5069052;28;20497;-87
2022/06/18 08:36:15;;;;;;;4.97;1.83;;;31.80;75.20;;;;;;5069727;28;20512;-88
2022/06/18 08:38:45;;;;;;;4.83;1.50;;;31.80;76.70;;;;;;5069870;28;20868;-87
2022/06/18 08:41:37;;;;;;;3.72;1.70;;;31.90;75.20;;;;;;5078067;28;20389;-86
2022/06/18 08:44:23;;;;;;;2.97;1.50;;;32.00;74.90;;;;;;5075555;28;20446;-88
2022/06/18 08:47:22;;;;;;;1.92;1.50;;;31.70;74.50;;;;;;5080818;28;20418;-86
2022/06/18 08:50:17;;;;;;;7.07;2.00;;;31.70;73.20;;;;;;5077060;28;20750;-89
2022/06/18 08:52:55;;;;;;;2.90;1.67;;;31.50;74.60;;;;;;5084748;28;20392;-86
2022/06/18 08:55:30;;;;;;;3.72;1.50;;;31.60;73.30;;;;;;5085229;28;20486;-86
2022/06/18 09:19:00;;;;;;;7.72;1.90;;;32.60;72.70;;;;;;5572714;22;20430;-86
2022/06/18 09:21:51;;;;;;;9.23;1.93;;;32.70;71.30;;;;;;5010774;28;20402;-87
2022/06/18 09:24:34;;;;;;;3.30;1.85;;;32.40;72.50;;;;;;5020652;28;20555;-85
2022/06/18 09:27:06;;;;;;;5.40;1.90;;;32.50;74.90;;;;;;5030655;28;20421;-85
2022/06/18 09:29:50;;;;;;;4.57;1.60;;;32.80;74.00;;;;;;5010899;28;20406;-87
2022/06/18 09:32:39;;;;;;;6.50;1.75;;;32.90;74.40;;;;;;5000800;28;20382;-88
2022/06/18 09:35:12;;;;;;;5.28;1.77;;;33.00;75.20;;;;;;5009989;28;20411;-85
2022/06/18 09:37:49;;;;;;;4.10;1.52;;;33.20;72.30;;;;;;5007756;28;20391;-86
2022/06/18 09:40:53;;;;;;;2.75;2.00;;;33.30;72.80;;;;;;5010800;28;20488;-86
2022/06/18 09:43:56;;;;;;;3.83;1.90;;;33.10;73.20;;;;;;4928142;29;20418;-86
2022/06/18 09:46:31;;;;;;;3.78;1.88;;;33.00;72.40;;;;;;5017264;28;21801;-88
2022/06/18 09:48:57;;;;;;;4.35;1.60;;;33.20;73.00;;;;;;5011133;28;20421;-85
2022/06/18 09:51:49;;;;;;;3.57;1.70;;;33.30;71.20;;;;;;5011362;28;20884;-85
2022/06/18 09:54:18;;;;;;;3.80;1.90;;;33.40;71.10;;;;;;5008753;28;20391;-85
2022/06/18 09:56:49;;;;;;;5.07;1.70;;;33.50;70.80;;;;;;5011357;28;20891;-85
2022/06/18 09:59:39;;;;;;;4.88;1.88;;;33.40;71.20;;;;;;5009323;28;20439;-90
2022/06/18 10:02:32;;;;;;;10.80;2.10;;;33.40;72.00;;;;;;5016080;28;20486;-86
2022/06/18 10:07:48;;;;;;;4.88;1.88;;;33.50;69.70;;;;;;4991409;28;20383;-86
2022/06/18 10:10:18;;;;;;;5.10;1.87;;;33.50;71.50;;;;;;5006428;28;20897;-84
2022/06/18 10:12:53;;;;;;;7.63;2.10;;;33.50;71.70;;;;;;4998591;28;20885;-86
2022/06/18 10:15:20;;;;;;;4.40;1.77;;;33.60;70.30;;;;;;5007155;28;20426;-84
2022/06/18 10:18:16;;;;;;;6.70;1.90;;;33.50;71.80;;;;;;5007310;28;20394;-84
2022/06/18 10:21:12;;;;;;;8.53;2.83;;;33.50;71.40;;;;;;5034402;28;20391;-87
2022/06/18 10:24:12;;;;;;;8.98;2.55;;;33.40;71.90;;;;;;5008716;28;20841;-86
2022/06/18 10:26:48;;;;;;;3.13;1.90;;;33.40;70.90;;;;;;5005237;28;20459;-87
2022/06/18 10:29:42;;;;;;;3.40;1.88;;;33.50;71.80;;;;;;5009203;28;20391;-89
2022/06/18 10:32:26;;;;;;;4.22;2.03;;;33.60;72.50;;;;;;5004168;28;20422;-89
2022/06/18 10:35:29;;;;;;;4.18;1.95;;;33.80;72.10;;;;;;5007058;28;20422;-87
2022/06/18 10:38:16;;;;;;;3.22;1.90;;;34.10;71.10;;;;;;5008681;28;20893;-88
2022/06/18 10:41:02;;;;;;;4.13;2.00;;;34.00;71.10;;;;;;5008119;28;20379;-86
2022/06/18 10:43:59;;;;;;;4.80;1.65;;;34.10;72.00;;;;;;5006579;28;20908;-86
2022/06/18 10:46:25;;;;;;;8.30;2.30;;;34.20;71.00;;;;;;5005345;28;21751;-85
2022/06/18 10:49:00;;;;;;;7.93;2.33;;;34.40;69.30;;;;;;5008113;28;20394;-88
2022/06/18 10:51:32;;;;;;;6.22;2.00;;;34.50;69.50;;;;;;5006937;28;20757;-87
2022/06/18 10:54:03;;;;;;;6.13;2.03;;;34.50;69.20;;;;;;5008400;28;20427;-85
2022/06/18 10:56:43;;;;;;;6.30;2.30;;;34.40;70.00;;;;;;5009351;28;20848;-86
2022/06/18 10:59:09;;;;;;;7.90;2.70;;;34.30;69.20;;;;;;5005583;28;20395;-87
2022/06/18 11:01:46;;;;;;;5.75;2.22;;;34.40;68.60;;;;;;5007432;28;20392;-86
2022/06/18 11:04:18;;;;;;;12.05;2.33;;;34.40;66.90;;;;;;5006900;28;20905;-87
2022/06/18 11:06:48;;;;;;;5.85;2.15;;;34.40;65.30;;;;;;5006057;28;20388;-87
2022/06/18 11:09:36;;;;;;;15.77;2.95;;;34.20;67.20;;;;;;5008007;28;20473;-86
2022/06/18 11:12:07;;;;;;;6.00;2.25;;;34.10;67.10;;;;;;5010884;28;21203;-85
2022/06/18 11:14:42;;;;;;;6.68;2.70;;;34.20;67.70;;;;;;5002813;28;20729;-88
2022/06/18 11:17:30;;;;;;;8.27;2.27;;;34.20;68.50;;;;;;5010589;28;20387;-87
2022/06/18 11:20:15;;;;;;;5.35;2.00;;;34.40;67.10;;;;;;5019802;28;20892;-88
2022/06/18 11:22:44;;;;;;;5.60;2.57;;;34.20;67.10;;;;;;5016735;28;20411;-85
2022/06/18 11:25:28;;;;;;;6.28;2.85;;;34.20;67.40;;;;;;5022293;28;21561;-86
2022/06/18 11:28:00;;;;;;;11.43;2.63;;;34.20;69.10;;;;;;5020535;28;20740;-86
2022/06/18 11:30:41;;;;;;;5.95;2.40;;;34.30;68.50;;;;;;5017853;28;20530;-89
2022/06/18 11:33:25;;;;;;;5.80;2.40;;;34.40;67.40;;;;;;5018833;28;20387;-85
2022/06/18 11:35:51;;;;;;;9.40;2.95;;;34.30;68.00;;;;;;5008165;28;20489;-84
2022/06/18 11:38:30;;;;;;;7.40;3.10;;;34.30;67.40;;;;;;5014690;28;20490;-86
2022/06/18 11:41:00;;;;;;;4.93;2.60;;;34.20;69.00;;;;;;5018258;28;20379;-86
2022/06/18 11:43:38;;;;;;;8.07;2.40;;;34.30;68.10;;;;;;5013858;28;20461;-87
2022/06/18 11:46:31;;;;;;;13.05;3.40;;;34.20;66.80;;;;;;5009728;28;20406;-86
2022/06/18 11:49:06;;;;;;;7.47;3.05;;;34.10;67.20;;;;;;4998476;28;20383;-89
2022/06/18 11:52:05;;;;;;;9.27;3.30;;;34.00;65.70;;;;;;5014927;28;20406;-90
2022/06/18 11:54:50;;;;;;;15.82;4.07;;;34.00;66.70;;;;;;5020171;28;20390;-85
2022/06/18 11:57:24;;;;;;;10.85;3.25;;;34.00;71.40;;;;;;5018450;28;21137;-87
2022/06/18 11:59:59;;;;;;;8.60;3.67;;;33.90;66.40;;;;;;5022066;28;20787;-87
2022/06/18 12:02:43;;;;;;;9.47;2.93;;;34.00;67.10;;;;;;5019889;28;20406;-89
2022/06/18 12:05:16;;;;;;;8.43;3.08;;;34.00;68.40;;;;;;5018926;28;20436;-86
2022/06/18 12:07:51;;;;;;;8.60;3.08;;;33.90;68.10;;;;;;5020138;28;20383;-87
2022/06/18 12:10:19;;;;;;;11.63;3.47;;;34.00;66.70;;;;;;5007849;28;20383;-85
2022/06/18 12:13:04;;;;;;;8.13;3.15;;;34.10;69.10;;;;;;5009172;28;20441;-87
2022/06/18 12:15:39;;;;;;;10.65;3.53;;;34.30;67.40;;;;;;5009467;28;20433;-86
2022/06/18 12:18:14;;;;;;;10.57;3.67;;;34.40;65.40;;;;;;5009739;28;20375;-85
2022/06/18 12:21:03;;;;;;;10.25;3.42;;;34.10;67.70;;;;;;5008968;28;20423;-88
2022/06/18 12:23:48;;;;;;;10.48;3.65;;;34.10;67.70;;;;;;5018359;28;20411;-87
2022/06/18 12:26:22;;;;;;;10.20;3.75;;;34.30;67.80;;;;;;5016904;28;20386;-86
2022/06/18 12:29:01;;;;;;;11.13;3.72;;;34.40;67.10;;;;;;5020686;28;20387;-86
2022/06/18 12:31:53;;;;;;;13.15;4.05;;;34.40;65.40;;;;;;5019978;28;20752;-88
2022/06/18 12:34:41;;;;;;;9.52;3.10;;;34.50;67.70;;;;;;5018442;28;20876;-87
2022/06/18 12:37:44;;;;;;;10.73;3.47;;;34.60;65.80;;;;;;5020311;28;20381;-86
2022/06/18 12:40:20;;;;;;;9.80;3.65;;;34.40;67.30;;;;;;5019858;28;20374;-85
2022/06/18 12:42:53;;;;;;;11.77;4.20;;;34.50;67.70;;;;;;5022087;28;20416;-87
2022/06/18 12:45:22;;;;;;;11.55;3.60;;;;;;;;;;5004429;28;20395;-87
2022/06/18 12:48:08;;;;;;;10.63;3.17;;;;;;;;;;5009317;28;20379;-89
2022/06/18 12:51:03;;;;;;;9.13;3.42;;;34.30;64.20;;;;;;5006711;28;20438;-86
2022/06/18 12:54:16;;;;;;;11.02;3.50;;;34.30;64.10;;;;;;4988310;28;20389;-88
2022/06/18 12:56:58;;;;;;;11.50;3.55;;;34.10;66.40;;;;;;5008829;28;20397;-86
2022/06/18 12:59:48;;;;;;;9.27;3.40;;;34.00;68.30;;;;;;5025696;28;20914;-88
2022/06/18 13:02:41;;;;;;;12.02;3.53;;;34.00;67.40;;;;;;5017655;28;20481;-89
2022/06/18 13:05:26;;;;;;;12.07;3.63;;;34.10;64.50;;;;;;5020063;28;20375;-87
2022/06/18 13:08:16;;;;;;;11.03;3.93;;;34.30;66.90;;;;;;5021927;28;20413;-86
2022/06/18 13:11:00;;;;;;;12.75;4.10;;;34.40;65.00;;;;;;5012589;28;20405;-87
2022/06/18 13:13:45;;;;;;;9.23;3.70;;;34.40;65.50;;;;;;5012751;28;20387;-89
2022/06/18 13:16:22;;;;;;;12.80;3.40;;;34.40;66.80;;;;;;5011013;28;20383;-89
2022/06/18 13:19:20;;;;;;;9.02;3.53;;;34.50;67.30;;;;;;5010611;28;20391;-87
2022/06/18 13:21:46;;;;;;;9.98;3.50;;;34.50;65.50;;;;;;5006441;28;20414;-89
2022/06/18 13:30:15;;;;;;;10.48;3.40;;;34.20;65.80;;;;;;5013127;28;20450;-88
2022/06/18 13:32:41;;;;;;;9.90;3.53;;;34.30;65.60;;;;;;5011051;28;20409;-84
2022/06/18 13:35:28;;;;;;;7.43;3.45;;;34.40;65.50;;;;;;5011339;28;20383;-88
2022/06/18 13:38:18;;;;;;;10.32;3.80;;;34.60;66.20;;;;;;5009903;28;20418;-86
2022/06/18 13:40:57;;;;;;;11.63;3.72;;;34.80;64.40;;;;;;5009346;28;20387;-85
2022/06/18 13:43:49;;;;;;;10.15;3.60;;;34.70;66.60;;;;;;5009529;28;20409;-87
2022/06/18 13:46:48;;;;;;;8.30;3.78;;;34.70;66.10;;;;;;5011345;28;20378;-85
2022/06/18 13:49:40;;;;;;;8.93;3.20;;;34.70;66.60;;;;;;5010189;28;20395;-89
2022/06/18 13:52:07;;;;;;;11.55;4.22;;;34.70;64.90;;;;;;5010308;28;20395;-85
2022/06/18 13:54:43;;;;;;;12.30;4.15;;;34.70;64.10;;;;;;5010734;28;20379;-87
2022/06/18 13:57:10;;;;;;;9.77;3.60;;;34.70;65.40;;;;;;5010684;28;20395;-86